Time;durP1;ratioP1;P1;durP2;ratioP2;P2;SDS_P1;SDS_P2;PMS_P1;PMS_P2;Temp;Humidity;BMP_temperature;BMP_pressure;BME280_temperature;BME280_humidity;BME280_pressure;Samples;Min_cycle;Max_cycle;Signal;HPM_P1;HPM_P2
2021/11/17 02:26:08;;;;;;;66.77;35.91;;;;;;;-4.08;61.09;102423.86;466106;111;923113;-89
2021/11/17 02:27:45;;;;;;;82.53;45.02;;;;;;;-4.09;61.08;102419.50;463481;112;922550;-88
2021/11/17 02:30:47;;;;;;;69.28;37.02;;;;;;;-4.02;61.20;102428.89;478426;108;947980;-88
2021/11/17 02:32:03;;;;;;;67.55;34.94;;;;;;;-4.12;61.18;102426.76;469748;110;922669;-89
2021/11/17 02:33:40;;;;;;;62.00;34.36;;;;;;;-4.12;61.21;102421.43;469597;109;922603;-89
2021/11/17 02:34:53;;;;;;;57.97;33.87;;;;;;;-4.12;61.25;102422.30;458816;113;923035;-88
2021/11/17 02:36:10;;;;;;;64.97;34.68;;;;;;;-4.10;61.31;102420.44;460107;114;922756;-91
2021/11/17 02:38:48;;;;;;;61.63;33.96;;;;;;;-3.95;61.28;102413.47;474858;109;947246;-89
2021/11/17 02:40:30;;;;;;;58.57;34.80;;;;;;;-4.05;61.28;102404.22;444548;112;922716;-89
2021/11/17 02:41:41;;;;;;;55.36;33.11;;;;;;;-4.04;61.17;102406.81;460144;112;930174;-88
2021/11/17 02:43:07;;;;;;;56.45;32.82;;;;;;;-4.04;61.05;102403.28;461323;112;922492;-87
2021/11/17 02:44:23;;;;;;;52.14;32.42;;;;;;;-4.06;60.96;102408.68;462638;112;922176;-90
2021/11/17 02:45:39;;;;;;;56.72;33.44;;;;;;;-4.06;61.10;102407.81;462072;111;922100;-87
2021/11/17 02:47:14;;;;;;;57.93;33.89;;;;;;;-4.07;61.11;102406.08;462346;111;922269;-90
2021/11/17 02:48:39;;;;;;;62.89;34.42;;;;;;;-4.06;61.13;102408.68;460435;113;922423;-90
2021/11/17 02:50:04;;;;;;;63.07;35.54;;;;;;;-4.05;61.07;102423.73;460841;112;923350;-90
2021/11/17 02:51:30;;;;;;;61.34;33.96;;;;;;;-4.07;61.00;102412.28;461029;111;922553;-89
2021/11/17 02:52:40;;;;;;;58.41;32.12;;;;;;;-4.07;61.00;102408.75;459390;111;922800;-89
2021/11/17 02:53:56;;;;;;;54.95;32.55;;;;;;;-4.08;61.01;102407.05;460608;112;922637;-91
2021/11/17 02:55:38;;;;;;;56.89;33.09;;;;;;;-3.99;61.03;102409.24;471681;110;925673;-90
2021/11/17 02:56:57;;;;;;;61.63;35.07;;;;;;;-4.11;61.02;102405.38;457936;112;922331;-88
2021/11/17 02:58:22;;;;;;;64.00;33.93;;;;;;;-4.12;60.99;102408.12;450630;116;922677;-88
2021/11/17 02:59:39;;;;;;;66.98;35.70;;;;;;;-4.14;61.00;102397.56;455348;115;922225;-88
2021/11/17 03:00:55;;;;;;;58.85;34.34;;;;;;;-4.15;60.94;102397.62;433490;121;922909;-89
2021/11/17 03:02:09;;;;;;;64.83;35.92;;;;;;;-4.16;61.01;102398.56;444006;116;923069;-89
2021/11/17 03:03:25;;;;;;;59.58;33.69;;;;;;;-4.16;60.93;102396.77;453947;114;922392;-87
2021/11/17 03:04:59;;;;;;;62.89;33.85;;;;;;;-4.16;60.93;102406.55;445652;116;923201;-90
2021/11/17 03:06:15;;;;;;;62.58;35.12;;;;;;;-4.17;60.95;102400.36;454515;114;922921;-89
2021/11/17 03:07:46;;;;;;;69.94;36.29;;;;;;;-4.17;61.07;102405.69;453311;114;922599;-90
2021/11/17 03:09:16;;;;;;;66.90;34.26;;;;;;;-4.17;61.04;102404.81;443977;114;923172;-91
2021/11/17 03:10:44;;;;;;;60.62;34.95;;;;;;;-4.19;61.05;102399.59;453225;115;922605;-89
2021/11/17 03:12:00;;;;;;;67.80;33.91;;;;;;;-4.19;61.13;102393.41;444786;116;922848;-89
2021/11/17 03:13:16;;;;;;;60.57;33.43;;;;;;;-4.21;61.21;102389.01;447545;114;922813;-87
2021/11/17 03:14:30;;;;;;;66.80;35.44;;;;;;;-4.21;61.20;102385.48;445068;116;922756;-89
2021/11/17 03:16:09;;;;;;;62.69;34.61;;;;;;;-4.22;61.16;102381.95;445796;118;923164;-91
2021/11/17 03:17:31;;;;;;;57.81;31.89;;;;;;;-4.22;61.21;102386.41;451170;114;922571;-90
2021/11/17 03:18:56;;;;;;;57.51;32.29;;;;;;;-4.19;61.58;102388.08;439575;118;922631;-91
2021/11/17 03:20:27;;;;;;;57.32;32.07;;;;;;;-4.14;61.77;102386.04;453783;114;922418;-91
2021/11/17 03:21:52;;;;;;;56.44;31.08;;;;;;;-4.08;61.66;102383.91;453548;115;922736;-88
2021/11/17 03:23:20;;;;;;;57.78;30.62;;;;;;;-4.05;61.57;102402.42;453598;114;922806;-89
2021/11/17 03:24:40;;;;;;;51.41;30.51;;;;;;;-4.03;61.48;102397.89;455027;114;922558;-90
2021/11/17 03:26:04;;;;;;;56.67;31.36;;;;;;;-4.03;61.40;102397.02;455096;114;922710;-89
2021/11/17 03:27:24;;;;;;;51.31;30.87;;;;;;;-4.04;61.39;102397.95;453614;114;922644;-89
2021/11/17 03:28:49;;;;;;;58.99;33.57;;;;;;;-4.04;61.46;102400.62;454309;114;922715;-91
2021/11/17 03:30:07;;;;;;;60.70;31.37;;;;;;;-4.04;61.51;102398.82;450391;114;922587;-91
2021/11/17 03:31:30;;;;;;;53.97;30.72;;;;;;;-4.03;61.46;102397.89;453650;114;922673;-88
2021/11/17 03:32:53;;;;;;;56.69;30.93;;;;;;;-4.04;61.41;102396.16;454186;116;922549;-90
2021/11/17 03:34:06;;;;;;;57.17;32.83;;;;;;;-4.04;61.34;102397.95;453725;115;922601;-88
2021/11/17 03:35:48;;;;;;;63.37;34.58;;;;;;;-4.07;61.31;102388.30;454364;113;922617;-91
2021/11/17 03:36:58;;;;;;;67.63;37.16;;;;;;;-4.06;61.28;102392.70;455376;114;922937;-90
2021/11/17 03:38:13;;;;;;;64.31;35.93;;;;;;;-4.07;61.24;102393.63;454295;115;922671;-90
2021/11/17 03:39:23;;;;;;;71.45;38.79;;;;;;;-4.07;61.28;102390.09;454961;114;922538;-89
2021/11/17 03:40:45;;;;;;;64.48;37.70;;;;;;;-4.08;61.35;102394.56;454148;114;923170;-90
2021/11/17 03:42:18;;;;;;;65.27;37.23;;;;;;;-4.09;61.21;102392.86;455081;114;923106;-89
2021/11/17 03:43:51;;;;;;;67.31;37.72;;;;;;;-4.08;61.15;102394.56;454387;114;922991;-89
2021/11/17 03:45:02;;;;;;;66.81;37.03;;;;;;;-4.09;61.10;102389.33;454951;114;922251;-89
2021/11/17 03:46:15;;;;;;;63.33;36.28;;;;;;;-4.11;60.92;102392.06;453738;114;922381;-92
2021/11/17 03:47:28;;;;;;;60.14;36.19;;;;;;;-4.13;60.89;102390.41;454183;114;929888;-89
2021/11/17 03:48:48;;;;;;;64.54;37.96;;;;;;;-4.15;60.84;102387.84;455864;114;922124;-90
2021/11/17 03:50:07;;;;;;;65.68;36.98;;;;;;;-4.16;60.82;102393.23;455820;114;922566;-88
2021/11/17 03:51:24;;;;;;;67.34;38.06;;;;;;;-4.18;60.88;102393.30;437507;118;922650;-90
2021/11/17 03:52:48;;;;;;;66.61;37.57;;;;;;;-4.19;60.86;102386.28;455327;114;922605;-87
2021/11/17 03:54:16;;;;;;;64.25;37.03;;;;;;;-4.20;60.88;102389.87;454279;114;922916;-89
2021/11/17 03:55:37;;;;;;;60.38;35.16;;;;;;;-4.22;60.89;102378.42;451467;114;922661;-94
2021/11/17 03:57:10;;;;;;;70.43;38.35;;;;;;;-4.24;60.92;102385.61;451916;117;922680;-92
2021/11/17 03:58:20;;;;;;;70.59;38.18;;;;;;;-4.22;60.97;102381.09;451136;115;922728;-87
2021/11/17 03:59:44;;;;;;;71.15;38.54;;;;;;;-4.19;60.99;102383.61;451008;115;922639;-89
2021/11/17 04:01:01;;;;;;;62.89;35.77;;;;;;;-4.19;60.96;102380.95;451063;116;930489;-89
2021/11/17 04:02:14;;;;;;;66.82;36.31;;;;;;;-4.18;60.85;102387.11;452200;116;922694;-92
2021/11/17 04:03:41;;;;;;;61.48;35.42;;;;;;;-4.20;60.82;102376.55;452437;115;922710;-91
2021/11/17 04:04:49;;;;;;;66.38;37.22;;;;;;;-4.21;60.82;102383.68;437563;119;923581;-92
2021/11/17 04:06:14;;;;;;;61.24;37.42;;;;;;;-4.22;60.78;102383.75;430449;120;923039;-88
2021/11/17 04:07:41;;;;;;;68.08;38.47;;;;;;;-4.13;60.84;102385.94;465485;110;1193605;-89
2021/11/17 04:08:54;;;;;;;60.22;35.85;;;;;;;-4.23;60.77;102385.55;461700;113;923647;-89
2021/11/17 04:10:10;;;;;;;58.61;35.34;;;;;;;-4.24;60.70;102382.95;461812;113;922930;-90
2021/11/17 04:11:20;;;;;;;53.18;33.25;;;;;;;-4.24;60.60;102385.61;461009;113;923150;-90
2021/11/17 04:12:30;;;;;;;62.84;36.80;;;;;;;-4.25;60.61;102389.23;458200;113;922730;-90
2021/11/17 04:14:05;;;;;;;67.00;36.45;;;;;;;-4.25;60.54;102389.23;459134;113;923071;-90
2021/11/17 04:15:33;;;;;;;61.89;34.06;;;;;;;-4.26;60.68;102384.84;447983;116;922930;-93
2021/11/17 04:16:49;;;;;;;66.22;35.18;;;;;;;-4.27;60.66;102388.44;460939;113;922315;-89
2021/11/17 04:18:24;;;;;;;73.50;37.75;;;;;;;-4.27;60.67;102393.77;458887;113;922901;-88
2021/11/17 04:19:51;;;;;;;71.62;36.24;;;;;;;-4.28;60.63;102392.03;460398;113;922700;-89
2021/11/17 04:21:01;;;;;;;64.24;36.29;;;;;;;-4.28;60.65;102394.70;459573;113;922546;-91
2021/11/17 04:22:09;;;;;;;62.34;36.56;;;;;;;-4.31;60.63;102395.73;460215;113;922621;-89
2021/11/17 04:23:37;;;;;;;70.84;35.57;;;;;;;-4.31;60.73;102397.52;459737;113;922929;-89
2021/11/17 04:24:48;;;;;;;63.41;37.04;;;;;;;-4.33;60.73;102394.93;459326;113;923106;-88
2021/11/17 04:26:04;;;;;;;68.65;36.86;;;;;;;-4.34;60.75;102390.53;459821;113;922627;-87
2021/11/17 04:27:14;;;;;;;70.31;37.58;;;;;;;-4.33;60.84;102392.27;461558;113;922757;-89
2021/11/17 04:28:34;;;;;;;65.09;36.85;;;;;;;-4.34;60.90;102393.20;460847;113;922518;-88
2021/11/17 04:29:53;;;;;;;75.76;40.14;;;;;;;-4.33;60.89;102394.93;459677;113;923101;-88
2021/11/17 04:31:17;;;;;;;83.30;41.52;;;;;;;-4.30;60.90;102401.92;461823;113;922206;-88
2021/11/17 04:32:40;;;;;;;82.81;42.61;;;;;;;-4.30;60.93;102393.94;462145;113;922336;-90
2021/11/17 04:33:56;;;;;;;86.50;46.31;;;;;;;-4.29;60.92;102387.64;445876;118;922415;-87
2021/11/17 04:35:04;;;;;;;85.78;45.04;;;;;;;-4.28;60.85;102387.58;443164;118;922932;-90
2021/11/17 04:36:27;;;;;;;88.12;46.84;;;;;;;-4.28;60.82;102390.23;461597;113;922184;-91
2021/11/17 04:37:49;;;;;;;86.40;46.45;;;;;;;-4.29;60.80;102393.83;451917;115;922326;-91
2021/11/17 04:39:08;;;;;;;94.54;46.49;;;;;;;-4.29;60.77;102396.50;452380;115;922918;-88
2021/11/17 04:40:16;;;;;;;90.92;47.72;;;;;;;-4.29;60.75;102398.29;426268;122;922751;-86
2021/11/17 04:41:36;;;;;;;101.76;53.64;;;;;;;-4.30;60.74;102401.92;459902;113;922529;-91
2021/11/17 04:43:02;;;;;;;112.96;53.29;;;;;;;-4.31;60.69;102393.06;460162;113;922200;-88
2021/11/17 04:44:26;;;;;;;104.72;50.42;;;;;;;-4.32;60.63;102399.33;461515;113;922864;-90
2021/11/17 04:45:42;;;;;;;97.41;48.84;;;;;;;-4.33;60.64;102402.05;460899;113;922756;-89
2021/11/17 04:46:52;;;;;;;101.36;52.28;;;;;;;-4.33;60.68;102399.39;461136;113;922447;-90
2021/11/17 04:48:06;;;;;;;112.62;56.43;;;;;;;-4.32;60.76;102396.66;459567;113;922674;-89
2021/11/17 04:49:21;;;;;;;106.69;55.22;;;;;;;-4.30;60.83;102396.59;460291;113;923173;-89
2021/11/17 04:50:48;;;;;;;105.69;53.28;;;;;;;-4.27;60.91;102396.43;460072;113;922662;-88
2021/11/17 04:52:14;;;;;;;98.07;49.61;;;;;;;-4.23;60.80;102400.66;460806;113;922298;-89
2021/11/17 04:53:21;;;;;;;106.26;51.04;;;;;;;-4.21;60.77;102398.80;460671;113;922739;-91
2021/11/17 04:54:34;;;;;;;112.88;55.34;;;;;;;-4.19;60.72;102402.25;452394;116;922594;-90
2021/11/17 04:56:03;;;;;;;110.82;53.77;;;;;;;-4.17;60.65;102395.03;450651;115;922727;-89
2021/11/17 04:57:29;;;;;;;104.85;55.19;;;;;;;-4.17;60.58;102403.02;460988;113;922794;-91
2021/11/17 04:58:36;;;;;;;103.11;50.87;;;;;;;-4.17;60.55;102396.83;460410;113;922898;-89
2021/11/17 04:59:46;;;;;;;103.40;52.06;;;;;;;-4.20;60.49;102400.52;459621;113;923058;-89
2021/11/17 05:01:26;;;;;;;102.81;49.84;;;;;;;-4.24;60.50;102398.92;459731;113;922598;-89
2021/11/17 05:02:42;;;;;;;104.82;51.47;;;;;;;-4.26;60.55;102403.48;461478;113;930161;-88
2021/11/17 05:04:06;;;;;;;108.24;52.56;;;;;;;-4.30;60.55;102393.94;460017;113;922397;-88
2021/11/17 05:05:29;;;;;;;96.62;47.10;;;;;;;-4.31;60.55;102402.85;462044;113;922669;-89
2021/11/17 05:07:08;;;;;;;92.45;47.49;;;;;;;-4.34;60.49;102402.98;460779;113;922552;-88
2021/11/17 05:08:22;;;;;;;103.52;50.19;;;;;;;-4.39;60.47;102397.89;460363;114;922159;-89
2021/11/17 05:09:38;;;;;;;98.63;47.96;;;;;;;-4.44;60.52;102396.39;459617;113;922487;-88
2021/11/17 05:11:04;;;;;;;100.46;49.19;;;;;;;-4.49;60.61;102396.61;460691;113;922756;-89
2021/11/17 05:12:16;;;;;;;90.72;46.64;;;;;;;-4.50;60.69;102394.02;459575;113;922537;-89
2021/11/17 05:13:29;;;;;;;101.41;48.46;;;;;;;-4.51;60.75;102392.28;461565;113;923000;-90
2021/11/17 05:14:37;;;;;;;97.85;48.38;;;;;;;-4.52;60.77;102396.74;460828;113;922375;-89
2021/11/17 05:16:04;;;;;;;93.27;47.82;;;;;;;-4.52;60.80;102393.25;460999;113;922996;-87
2021/11/17 05:17:37;;;;;;;93.79;46.42;;;;;;;-4.51;60.83;102389.63;460345;113;922711;-89
2021/11/17 05:19:00;;;;;;;90.42;46.61;;;;;;;-4.36;60.75;102395.09;497240;103;947512;-90
2021/11/17 05:20:29;;;;;;;97.01;47.09;;;;;;;-4.48;60.67;102392.16;478772;107;923051;-88
2021/11/17 05:21:46;;;;;;;98.31;47.89;;;;;;;-4.50;60.57;102396.68;481086;107;922495;-87
2021/11/17 05:23:14;;;;;;;102.23;48.88;;;;;;;-4.51;60.68;102405.59;481467;106;922546;-91
2021/11/17 05:24:37;;;;;;;95.44;45.43;;;;;;;-4.52;60.76;102403.90;447952;108;923374;-89
2021/11/17 05:25:50;;;;;;;93.13;47.21;;;;;;;-4.54;60.82;102403.09;483182;106;922103;-91
2021/11/17 05:26:57;;;;;;;98.16;48.19;;;;;;;-4.52;60.88;102403.90;482132;107;922494;-88
2021/11/17 05:28:32;;;;;;;110.12;50.13;;;;;;;-4.51;60.92;102410.92;480371;108;922613;-91
2021/11/17 05:29:59;;;;;;;87.49;46.76;;;;;;;-4.49;60.92;102406.40;479678;107;922668;-88
2021/11/17 05:31:10;;;;;;;98.66;46.50;;;;;;;-4.47;60.94;102404.53;480980;109;922789;-89
2021/11/17 05:32:17;;;;;;;91.93;44.99;;;;;;;-4.47;60.91;102410.72;474663;107;922741;-93
2021/11/17 05:33:39;;;;;;;103.68;44.95;;;;;;;-4.48;60.82;102410.79;482571;107;922340;-91
2021/11/17 05:35:08;;;;;;;89.06;43.32;;;;;;;-4.48;60.89;102416.11;481893;107;922654;-91
2021/11/17 05:36:40;;;;;;;79.32;39.54;;;;;;;-4.48;60.92;102411.66;482704;107;922355;-89
2021/11/17 05:37:51;;;;;;;77.83;41.44;;;;;;;-4.48;60.98;102405.47;483671;107;922596;-89
2021/11/17 05:39:19;;;;;;;79.86;39.92;;;;;;;-4.47;61.08;102412.52;482371;107;923446;-90
2021/11/17 05:40:49;;;;;;;70.86;38.24;;;;;;;-4.45;61.12;102415.95;463865;107;930530;-86
2021/11/17 05:42:14;;;;;;;70.45;38.44;;;;;;;-4.42;61.19;102415.83;479842;108;922537;-88
2021/11/17 05:43:22;;;;;;;62.61;34.02;;;;;;;-4.39;61.24;102415.66;479245;108;922989;-89
2021/11/17 05:44:30;;;;;;;77.44;37.88;;;;;;;-4.37;61.29;102419.13;481859;107;923145;-90
2021/11/17 05:45:37;;;;;;;72.93;38.71;;;;;;;-4.35;61.30;102418.09;482681;107;922983;-88
2021/11/17 05:46:50;;;;;;;81.07;40.26;;;;;;;-4.33;61.33;102413.56;482427;107;922706;-89
2021/11/17 05:48:08;;;;;;;80.19;39.19;;;;;;;-4.30;61.30;102416.06;480008;107;922513;-89
2021/11/17 05:49:29;;;;;;;76.72;38.58;;;;;;;-4.26;61.28;102416.80;482409;108;922445;-88
2021/11/17 05:50:49;;;;;;;68.26;37.68;;;;;;;-4.20;61.26;102416.50;445688;115;923169;-90
2021/11/17 05:52:09;;;;;;;81.00;39.38;;;;;;;-4.15;61.23;102418.94;444769;116;922733;-90
2021/11/17 05:53:20;;;;;;;81.04;37.88;;;;;;;-4.13;61.20;102415.23;480460;107;922561;-86
2021/11/17 05:54:34;;;;;;;;;;;;;;;-4.08;61.32;102421.20;485190;107;921961;-91
2021/11/17 05:55:44;;;;;;;77.01;36.51;;;;;;;-4.03;61.36;102410.34;483955;108;922256;-90
2021/11/17 05:57:07;;;;;;;91.55;38.98;;;;;;;-4.00;61.45;102411.04;471957;107;922953;-91
2021/11/17 05:58:33;;;;;;;81.89;40.28;;;;;;;-3.95;61.52;102405.48;481447;107;930512;-91
2021/11/17 05:59:50;;;;;;;82.06;39.12;;;;;;;-3.89;61.35;102406.03;481090;107;922658;-91
2021/11/17 06:01:21;;;;;;;91.14;40.51;;;;;;;-3.81;61.58;102408.32;482079;107;923025;-90
2021/11/17 06:02:44;;;;;;;72.11;36.44;;;;;;;-3.73;61.53;102413.23;481597;107;922470;-91
2021/11/17 06:04:02;;;;;;;68.18;36.22;;;;;;;-3.66;61.39;102410.19;480803;108;922744;-89
2021/11/17 06:05:05;;;;;;;71.40;35.60;;;;;;;-3.59;61.28;102408.08;481647;107;922667;-89
2021/11/17 06:06:10;;;;;;;72.02;36.80;;;;;;;-3.53;61.32;102402.43;482563;108;922456;-91
2021/11/17 06:07:13;;;;;;;64.04;35.89;;;;;;;-3.47;61.33;102404.75;483665;107;922520;-89
2021/11/17 06:08:17;;;;;;;77.39;39.92;;;;;;;-3.40;61.32;102403.50;482452;108;930278;-91
2021/11/17 06:09:20;;;;;;;86.73;45.35;;;;;;;-3.32;61.19;102411.97;482216;109;926251;-88
2021/11/17 06:10:33;;;;;;;86.78;46.42;;;;;;;-3.26;61.05;102411.65;483258;107;922069;-92
2021/11/17 06:11:56;;;;;;;97.07;48.43;;;;;;;-3.20;60.89;102407.79;481510;108;929983;-88
2021/11/17 06:13:01;;;;;;;94.59;48.73;;;;;;;-3.14;60.72;102407.47;466696;111;922873;-90
2021/11/17 06:14:21;;;;;;;93.46;48.82;;;;;;;-2.96;60.46;102403.78;467565;110;946874;-86
2021/11/17 06:15:25;;;;;;;114.17;51.49;;;;;;;-3.04;60.20;102404.22;458919;114;922730;-85
2021/11/17 06:16:34;;;;;;;81.07;43.58;;;;;;;-3.01;60.02;102406.70;457470;114;922620;-88
2021/11/17 06:17:40;;;;;;;82.71;43.76;;;;;;;-3.03;59.89;102397.91;459529;113;930266;-85
2021/11/17 06:18:44;;;;;;;88.96;45.09;;;;;;;-3.05;59.80;102394.48;459100;114;922828;-89
2021/11/17 06:19:51;;;;;;;79.87;43.25;;;;;;;-3.07;59.71;102396.36;449161;116;923232;-91
2021/11/17 06:20:55;;;;;;;77.02;44.41;;;;;;;-3.10;59.66;102401.88;450652;116;922654;-93
2021/11/17 06:22:00;;;;;;;84.08;46.71;;;;;;;-3.14;59.64;102397.62;457884;114;922976;-87
2021/11/17 06:23:08;;;;;;;84.70;45.52;;;;;;;-3.17;59.64;102399.61;458674;114;922274;-86
2021/11/17 06:24:22;;;;;;;86.77;46.31;;;;;;;-3.11;59.70;102400.15;483341;107;947274;-85
2021/11/17 06:25:27;;;;;;;85.57;47.18;;;;;;;-3.23;59.79;102403.47;473334;111;922303;-89
2021/11/17 06:26:38;;;;;;;86.11;44.89;;;;;;;-3.24;59.85;102398.20;473805;111;922357;-89
2021/11/17 06:27:49;;;;;;;71.68;41.81;;;;;;;-3.25;59.91;102396.51;463691;112;922013;-90
2021/11/17 06:28:56;;;;;;;77.66;42.13;;;;;;;-3.26;60.06;102390.31;457161;113;922236;-88
2021/11/17 06:30:01;;;;;;;72.69;39.26;;;;;;;-3.25;60.06;102394.67;464704;111;922972;-89
2021/11/17 06:31:05;;;;;;;84.66;39.97;;;;;;;-3.24;60.17;102383.06;474256;109;923098;-86
2021/11/17 06:32:10;;;;;;;66.06;37.24;;;;;;;-3.22;60.30;102383.86;475119;110;922001;-85
2021/11/17 06:33:14;;;;;;;67.89;37.42;;;;;;;-3.18;60.41;102389.87;472865;109;922938;-87
2021/11/17 06:34:37;;;;;;;70.51;37.97;;;;;;;-3.14;60.49;102386.95;474268;111;922569;-82
2021/11/17 06:35:41;;;;;;;64.22;35.87;;;;;;;-3.10;60.51;102388.54;473022;108;923213;-90
2021/11/17 06:36:45;;;;;;;71.05;37.31;;;;;;;-3.03;60.53;102383.70;473463;111;922982;-86
2021/11/17 06:37:51;;;;;;;65.44;36.67;;;;;;;-3.01;60.50;102379.16;473908;111;922587;-84
2021/11/17 06:38:55;;;;;;;75.63;37.09;;;;;;;-2.99;60.40;102383.48;474170;111;930285;-84
2021/11/17 06:40:06;;;;;;;65.13;34.89;;;;;;;-2.98;60.39;102379.01;473769;111;922365;-83
2021/11/17 06:41:07;;;;;;;70.35;37.73;;;;;;;-2.97;60.50;102380.70;473535;109;922852;-85
2021/11/17 06:42:14;;;;;;;72.62;38.85;;;;;;;-2.95;60.48;102382.36;473834;109;922479;-85
2021/11/17 06:43:19;;;;;;;70.88;37.72;;;;;;;-2.91;60.46;102382.17;473534;111;922559;-85
2021/11/17 06:44:29;;;;;;;72.17;39.48;;;;;;;-2.90;60.44;102371.42;472913;109;922671;-86
2021/11/17 06:45:39;;;;;;;80.64;40.03;;;;;;;-2.90;60.45;102373.23;473250;109;922863;-86
2021/11/17 06:46:43;;;;;;;77.97;40.08;;;;;;;-2.90;60.44;102370.56;472902;111;922641;-85
2021/11/17 06:47:47;;;;;;;68.70;39.01;;;;;;;-2.90;60.56;102366.09;472505;109;922691;-84
2021/11/17 06:48:51;;;;;;;67.35;38.32;;;;;;;-2.89;60.55;102364.28;473915;109;922872;-86
2021/11/17 06:49:55;;;;;;;65.84;39.85;;;;;;;-2.88;60.60;102368.68;472310;111;923289;-85
2021/11/17 06:51:00;;;;;;;67.99;41.22;;;;;;;-2.86;60.56;102361.42;472886;111;923085;-83
2021/11/17 06:52:06;;;;;;;70.93;39.64;;;;;;;-2.85;60.51;102369.36;473022;111;922818;-85
2021/11/17 06:53:11;;;;;;;73.11;40.86;;;;;;;-2.84;60.50;102359.55;473025;110;922673;-86
2021/11/17 06:54:15;;;;;;;72.43;41.71;;;;;;;-2.85;60.54;102369.36;472186;111;922705;-87
2021/11/17 06:55:19;;;;;;;69.95;41.15;;;;;;;-2.85;60.56;102369.36;472424;109;922533;-87
2021/11/17 06:56:23;;;;;;;61.09;35.91;;;;;;;-2.83;60.60;102366.61;474379;111;922691;-85
2021/11/17 06:57:27;;;;;;;66.19;33.88;;;;;;;-2.82;60.71;102369.20;474341;109;922465;-88
2021/11/17 06:58:31;;;;;;;57.59;33.55;;;;;;;-2.79;60.83;102365.48;474022;111;922589;-86
2021/11/17 06:59:35;;;;;;;61.02;33.99;;;;;;;-2.75;60.95;102359.89;474170;110;923083;-85
2021/11/17 07:00:42;;;;;;;57.86;33.94;;;;;;;-2.70;60.94;102357.81;472836;111;922627;-87
2021/11/17 07:01:46;;;;;;;64.81;37.14;;;;;;;-2.65;60.89;102361.12;473756;109;922742;-81
2021/11/17 07:02:51;;;;;;;62.83;37.27;;;;;;;-2.62;60.76;102354.73;474583;109;922127;-85
2021/11/17 07:03:55;;;;;;;59.76;36.40;;;;;;;-2.61;60.68;102359.98;474060;109;922338;-86
2021/11/17 07:05:00;;;;;;;65.02;35.92;;;;;;;-2.60;60.74;102360.85;473865;109;922404;-86
2021/11/17 07:06:04;;;;;;;64.30;36.18;;;;;;;-2.61;60.77;102359.13;474812;109;922368;-85
2021/11/17 07:08:25;;;;;;;67.92;36.82;;;;;;;-2.49;60.87;102357.57;479685;107;947019;-83
2021/11/17 07:09:29;;;;;;;68.23;36.63;;;;;;;-2.60;60.87;102351.03;465566;111;923281;-84
2021/11/17 07:10:37;;;;;;;62.06;38.18;;;;;;;-2.58;60.98;102359.80;468756;110;922573;-85
2021/11/17 07:11:43;;;;;;;76.33;38.52;;;;;;;-2.54;61.18;102355.17;467763;110;922443;-88
2021/11/17 07:12:57;;;;;;;63.95;36.86;;;;;;;-2.50;61.20;102351.36;467773;110;923148;-86
2021/11/17 07:14:10;;;;;;;67.28;37.32;;;;;;;-2.47;61.17;102343.16;467733;110;922722;-87
2021/11/17 07:15:15;;;;;;;72.42;37.83;;;;;;;-2.44;61.18;102351.02;467055;110;922356;-87
2021/11/17 07:16:24;;;;;;;81.90;44.57;;;;;;;-2.41;61.18;102350.83;469163;111;922667;-84
2021/11/17 07:17:29;;;;;;;83.68;43.48;;;;;;;-2.39;61.24;102345.41;469727;110;922673;-84
2021/11/17 07:18:35;;;;;;;83.22;44.66;;;;;;;-2.36;61.27;102339.88;458680;112;930460;-85
2021/11/17 07:19:39;;;;;;;79.36;43.33;;;;;;;-2.35;61.30;102338.92;459869;112;922854;-86
2021/11/17 07:20:43;;;;;;;84.82;44.83;;;;;;;-2.34;61.32;102338.84;458980;112;922549;-86
2021/11/17 07:21:47;;;;;;;80.43;43.66;;;;;;;-2.33;61.34;102335.23;460153;112;922678;-87
2021/11/17 07:22:52;;;;;;;79.91;43.71;;;;;;;-2.31;61.38;102332.45;468878;109;922504;-86
2021/11/17 07:23:56;;;;;;;86.71;41.85;;;;;;;-2.29;61.41;102330.56;468662;111;922327;-86
2021/11/17 07:25:00;;;;;;;74.79;40.70;;;;;;;-2.27;61.49;102329.53;469811;110;922661;-86
2021/11/17 07:26:04;;;;;;;73.43;40.76;;;;;;;-2.25;61.57;102332.95;469617;110;923022;-86
2021/11/17 07:27:12;;;;;;;73.38;42.56;;;;;;;-2.23;61.71;102333.73;468382;110;922443;-84
2021/11/17 07:28:16;;;;;;;76.96;40.61;;;;;;;-2.20;61.83;102332.68;468277;110;923159;-89
2021/11/17 07:29:20;;;;;;;79.41;41.86;;;;;;;-2.16;61.87;102324.42;469378;110;922473;-87
2021/11/17 07:30:28;;;;;;;85.38;41.27;;;;;;;-2.11;61.86;102329.48;468666;109;922583;-83
2021/11/17 07:31:32;;;;;;;77.48;40.75;;;;;;;-2.06;61.87;102326.54;468199;110;922746;-87
2021/11/17 07:32:39;;;;;;;77.21;40.73;;;;;;;-2.03;61.88;102327.20;469672;110;922732;-85
2021/11/17 07:33:43;;;;;;;76.42;40.38;;;;;;;-2.00;61.89;102320.83;469694;110;922593;-84
2021/11/17 07:34:47;;;;;;;76.84;41.88;;;;;;;-1.96;61.99;102314.34;468917;110;922348;-85
2021/11/17 07:35:53;;;;;;;76.97;41.09;;;;;;;-1.91;62.08;102317.59;468996;109;930504;-86
2021/11/17 07:36:57;;;;;;;80.58;41.76;;;;;;;-1.85;62.09;102319.91;468056;110;922714;-85
2021/11/17 07:38:04;;;;;;;85.36;44.69;;;;;;;-1.79;62.05;102320.40;468436;111;922850;-85
2021/11/17 07:39:15;;;;;;;84.27;44.14;;;;;;;-1.74;62.02;102318.30;468035;111;930223;-83
2021/11/17 07:40:17;;;;;;;82.96;43.49;;;;;;;-1.66;62.02;102322.33;468611;109;922432;-84
2021/11/17 07:41:22;;;;;;;110.49;56.61;;;;;;;-1.61;62.02;102329.13;470279;110;922369;-89
2021/11/17 07:42:29;;;;;;;126.98;60.58;;;;;;;-1.56;61.94;102329.70;465082;111;922528;-83
2021/11/17 07:43:33;;;;;;;120.91;60.68;;;;;;;-1.52;61.86;102320.52;464696;111;922933;-86
2021/11/17 07:44:38;;;;;;;123.24;67.11;;;;;;;-1.48;61.77;102329.20;465842;112;922438;-85
2021/11/17 07:45:48;;;;;;;115.60;62.35;;;;;;;-1.45;61.64;102321.01;463661;111;922555;-85
2021/11/17 07:46:54;;;;;;;126.89;66.39;;;;;;;-1.44;61.59;102325.41;465829;111;922904;-86
2021/11/17 07:47:59;;;;;;;114.65;63.92;;;;;;;-1.44;61.48;102326.27;465668;111;923294;-83
2021/11/17 07:49:03;;;;;;;104.69;56.16;;;;;;;-1.43;61.56;102314.59;465934;112;922572;-86
2021/11/17 07:50:10;;;;;;;85.64;48.36;;;;;;;-1.41;61.57;102323.39;465303;111;923267;-86
2021/11/17 07:51:15;;;;;;;84.68;45.43;;;;;;;-1.39;61.63;102323.30;466194;112;930163;-84
2021/11/17 07:52:19;;;;;;;82.09;42.11;;;;;;;-1.37;61.67;102327.59;465108;112;922637;-84
2021/11/17 07:53:25;;;;;;;86.55;43.01;;;;;;;-1.35;61.73;102324.83;465532;111;922413;-84
2021/11/17 07:54:29;;;;;;;84.93;44.15;;;;;;;-1.33;61.77;102329.14;465700;111;922524;-86
2021/11/17 07:55:35;;;;;;;84.66;45.22;;;;;;;-1.29;61.84;102325.31;465161;111;922330;-84
2021/11/17 07:56:42;;;;;;;84.84;42.69;;;;;;;-1.25;61.97;102328.64;464699;112;922318;-87
2021/11/17 07:57:49;;;;;;;87.32;43.33;;;;;;;-1.21;61.99;102323.98;464734;111;922524;-86
2021/11/17 07:58:53;;;;;;;71.41;40.33;;;;;;;-1.14;62.10;102323.47;464571;111;922876;-84
2021/11/17 07:59:57;;;;;;;87.04;40.99;;;;;;;-1.06;62.11;102325.67;464351;112;922464;-87
2021/11/17 08:01:05;;;;;;;72.97;39.55;;;;;;;-1.01;62.01;102319.08;464640;111;930367;-87
2021/11/17 08:02:12;;;;;;;86.28;41.61;;;;;;;-0.96;61.99;102321.45;463823;111;922646;-83
2021/11/17 08:03:19;;;;;;;80.12;39.22;;;;;;;-0.92;62.02;102321.15;464138;112;922711;-87
2021/11/17 08:04:24;;;;;;;70.77;38.47;;;;;;;-0.88;62.03;102311.95;464172;112;922560;-86
2021/11/17 08:05:28;;;;;;;76.15;39.04;;;;;;;-0.83;62.01;102325.07;462188;112;922580;-87